createdAt,value
2019-06-26T00:02:00.092Z,7.92
2019-06-26T00:04:32.673Z,7.95
2019-06-26T00:07:05.049Z,7.15
2019-06-26T00:12:08.965Z,7.08
2019-06-26T00:14:41.306Z,7.65
2019-06-26T00:17:13.663Z,7.78
2019-06-26T00:19:46.631Z,7.83
2019-06-26T00:22:18.460Z,6.12
2019-06-26T00:24:51.098Z,8.30
2019-06-26T00:27:23.239Z,8.20
2019-06-26T00:29:55.384Z,9.18
2019-06-26T00:32:28.006Z,8.43
2019-06-26T00:35:00.090Z,8.35
2019-06-26T00:37:32.706Z,7.87
2019-06-26T00:40:05.359Z,7.87
2019-06-26T00:42:37.507Z,8.73
2019-06-26T00:45:11.127Z,7.95
2019-06-26T00:47:42.965Z,9.10
2019-06-26T00:50:16.742Z,8.10
2019-06-26T00:52:48.571Z,8.30
2019-06-26T00:55:21.223Z,9.48
2019-06-26T00:57:53.123Z,7.65
2019-06-26T01:00:33.870Z,8.18
2019-06-26T01:03:05.982Z,7.90
2019-06-26T01:05:38.397Z,8.28
2019-06-26T01:08:10.778Z,8.15
2019-06-26T01:10:43.465Z,9.00
2019-06-26T01:13:16.128Z,8.23
2019-06-26T01:15:47.973Z,8.08
2019-06-26T01:18:20.342Z,8.08
2019-06-26T01:20:53.323Z,8.20
2019-06-26T01:23:25.689Z,8.17
2019-06-26T01:25:58.033Z,7.83
2019-06-26T01:28:30.409Z,9.33
2019-06-26T01:31:02.766Z,8.83
2019-06-26T01:33:34.873Z,9.15
2019-06-26T01:36:07.250Z,8.48
2019-06-26T01:38:39.725Z,9.18
2019-06-26T01:41:12.601Z,9.45
2019-06-26T01:46:16.335Z,9.40
2019-06-26T01:48:49.001Z,9.25
2019-06-26T01:51:28.296Z,8.60
2019-06-26T01:54:01.320Z,9.65
2019-06-26T01:56:33.455Z,10.45
2019-06-26T01:59:06.064Z,9.55
2019-06-26T02:01:39.037Z,9.20
2019-06-26T02:04:11.146Z,10.17
2019-06-26T02:06:43.570Z,9.23
2019-06-26T02:09:16.004Z,8.70
2019-06-26T02:11:48.106Z,10.23
2019-06-26T02:14:30.497Z,10.53
2019-06-26T02:16:54.804Z,8.73
2019-06-26T02:19:27.189Z,9.60
2019-06-26T02:21:59.575Z,9.45
2019-06-26T02:24:31.922Z,9.38
2019-06-26T02:27:04.256Z,9.58
2019-06-26T02:29:37.134Z,9.13
2019-06-26T02:34:40.488Z,8.05
2019-06-26T02:37:12.885Z,8.18
2019-06-26T02:39:45.596Z,8.83
2019-06-26T02:42:18.239Z,9.90
2019-06-26T02:44:53.866Z,8.73
2019-06-26T02:47:24.706Z,8.43
2019-06-26T02:49:57.347Z,9.13
2019-06-26T02:52:29.474Z,9.55
2019-06-26T02:55:01.839Z,9.15
2019-06-26T02:57:34.452Z,9.88
2019-06-26T03:00:06.994Z,11.28
2019-06-26T03:02:39.657Z,10.72
2019-06-26T03:05:12.888Z,9.65
2019-06-26T03:07:45.042Z,10.07
2019-06-26T03:10:17.602Z,9.55
2019-06-26T03:12:50.281Z,8.90
2019-06-26T03:15:22.929Z,9.50
2019-06-26T03:17:56.017Z,9.80
2019-06-26T03:20:32.944Z,9.57
2019-06-26T03:23:05.454Z,8.57
2019-06-26T03:25:38.025Z,8.53
2019-06-26T03:28:10.780Z,9.05
2019-06-26T03:30:42.618Z,9.00
2019-06-26T03:33:14.749Z,8.50
2019-06-26T03:35:47.114Z,9.10
2019-06-26T03:38:19.571Z,9.00
2019-06-26T03:40:52.216Z,8.25
2019-06-26T03:43:24.487Z,10.15
2019-06-26T03:45:57.458Z,8.98
2019-06-26T03:48:30.433Z,9.17
2019-06-26T03:51:02.798Z,8.83
2019-06-26T03:53:35.213Z,7.65
2019-06-26T03:56:07.716Z,8.95
2019-06-26T03:58:40.395Z,8.78
2019-06-26T04:01:12.764Z,8.85
2019-06-26T04:03:44.868Z,8.50
2019-06-26T04:06:17.245Z,8.20
2019-06-26T04:08:49.931Z,9.10
2019-06-26T04:11:22.320Z,8.10
2019-06-26T04:13:54.955Z,9.13
2019-06-26T04:16:27.069Z,8.43
2019-06-26T04:18:59.763Z,8.75
2019-06-26T04:21:32.733Z,8.70
2019-06-26T04:24:05.454Z,8.77
2019-06-26T04:26:37.555Z,9.25
2019-06-26T04:29:10.243Z,9.30
2019-06-26T04:31:42.866Z,9.70
2019-06-26T04:34:15.567Z,9.30
2019-06-26T04:36:47.554Z,9.58
2019-06-26T04:39:20.821Z,8.78
2019-06-26T04:41:53.470Z,9.80
2019-06-26T04:44:25.838Z,9.10
2019-06-26T04:46:58.210Z,9.50
2019-06-26T04:49:30.580Z,9.20
2019-06-26T04:52:03.037Z,9.83
2019-06-26T04:54:35.669Z,9.98
2019-06-26T04:57:07.803Z,8.88
2019-06-26T04:59:40.478Z,9.00
2019-06-26T05:02:12.581Z,9.63
2019-06-26T05:04:45.467Z,9.68
2019-06-26T05:09:48.700Z,8.68
2019-06-26T05:12:25.006Z,9.23
2019-06-26T05:14:59.803Z,9.97
2019-06-26T05:17:33.765Z,10.00
2019-06-26T05:20:07.528Z,10.45
2019-06-26T05:22:39.947Z,9.67
2019-06-26T05:25:12.987Z,10.00
2019-06-26T05:27:45.104Z,10.13
2019-06-26T05:30:18.021Z,10.03
2019-06-26T05:32:50.174Z,11.03
2019-06-26T05:35:22.601Z,11.57
2019-06-26T05:37:55.386Z,11.35
2019-06-26T05:42:58.555Z,10.60
2019-06-26T05:45:32.065Z,11.75
2019-06-26T05:48:05.010Z,12.00
2019-06-26T05:53:08.399Z,10.05
2019-06-26T05:55:40.852Z,9.60
2019-06-26T05:58:12.966Z,10.20
2019-06-26T06:00:45.418Z,10.80
2019-06-26T06:03:17.623Z,10.28
2019-06-26T06:05:50.299Z,9.63
2019-06-26T06:10:53.098Z,9.68
2019-06-26T06:13:25.867Z,10.23
2019-06-26T06:15:57.983Z,10.78
2019-06-26T06:18:30.894Z,10.05
2019-06-26T06:21:03.046Z,9.63
2019-06-26T06:23:35.216Z,10.72
2019-06-26T06:26:07.912Z,10.55
2019-06-26T06:31:11.361Z,9.23
2019-06-26T06:33:43.737Z,10.67
2019-06-26T06:36:16.727Z,10.35
2019-06-26T06:38:49.170Z,10.00
2019-06-26T06:41:21.888Z,10.20
2019-06-26T06:43:54.836Z,10.73
2019-06-26T06:46:27.231Z,9.40
2019-06-26T06:48:59.367Z,10.08
2019-06-26T06:51:31.465Z,8.80
2019-06-26T06:54:03.860Z,9.93
2019-06-26T06:56:35.698Z,9.58
2019-06-26T06:59:08.099Z,8.60
2019-06-26T07:04:11.160Z,9.00
2019-06-26T07:06:42.994Z,8.93
2019-06-26T07:09:15.631Z,8.53
2019-06-26T07:11:48.058Z,8.33
2019-06-26T07:14:20.705Z,8.53
2019-06-26T07:16:53.413Z,7.87
2019-06-26T07:19:25.561Z,9.30
2019-06-26T07:21:58.254Z,8.13
2019-06-26T07:24:30.883Z,8.38
2019-06-26T07:27:03.255Z,9.30
2019-06-26T07:29:35.367Z,8.70
2019-06-26T07:32:07.227Z,8.60
2019-06-26T07:37:10.090Z,8.63
2019-06-26T07:39:42.496Z,9.10
2019-06-26T07:42:14.570Z,8.00
2019-06-26T07:47:22.822Z,9.48
2019-06-26T07:49:51.637Z,8.58
2019-06-26T07:52:24.233Z,8.27
2019-06-26T07:54:56.643Z,7.62
2019-06-26T07:57:29.065Z,8.43
2019-06-26T08:00:01.162Z,8.03
2019-06-26T08:02:33.003Z,8.08
2019-06-26T08:05:05.648Z,9.33
2019-06-26T08:07:37.712Z,8.00
2019-06-26T08:10:09.948Z,8.90
2019-06-26T08:12:42.044Z,8.30
2019-06-26T08:15:14.062Z,7.30
2019-06-26T08:17:59.791Z,8.03
2019-06-26T08:20:20.295Z,9.73
2019-06-26T08:22:52.115Z,8.35
2019-06-26T08:25:24.485Z,8.83
2019-06-26T08:27:56.583Z,8.95
2019-06-26T08:30:28.414Z,8.18
2019-06-26T08:33:00.528Z,7.90
2019-06-26T08:35:32.351Z,8.65
2019-06-26T08:38:11.013Z,7.87
2019-06-26T08:40:38.234Z,7.62
2019-06-26T08:43:10.423Z,8.48
2019-06-26T08:45:43.113Z,7.50
2019-06-26T08:48:23.135Z,8.23
2019-06-26T08:50:50.144Z,8.60
2019-06-26T08:53:22.751Z,7.55
2019-06-26T08:55:54.597Z,8.08
2019-06-26T08:58:26.698Z,8.08
2019-06-26T09:00:59.121Z,7.72
2019-06-26T09:03:30.957Z,8.35
2019-06-26T09:06:03.568Z,7.95
2019-06-26T09:08:36.758Z,7.35
2019-06-26T09:11:08.584Z,6.65
2019-06-26T09:13:40.916Z,7.03
2019-06-26T09:16:13.382Z,7.50
2019-06-26T09:18:45.464Z,6.72
2019-06-26T09:21:17.832Z,7.47
2019-06-26T09:23:50.220Z,7.10
2019-06-26T09:26:22.170Z,7.42
2019-06-26T09:28:54.495Z,7.62
2019-06-26T09:31:26.593Z,7.70
2019-06-26T09:33:58.973Z,6.85
2019-06-26T09:36:30.789Z,7.42
2019-06-26T09:39:05.186Z,6.70
2019-06-26T09:41:37.607Z,6.87
2019-06-26T09:44:09.713Z,6.92
2019-06-26T09:46:42.176Z,7.42
2019-06-26T09:49:14.599Z,6.87
2019-06-26T09:51:47.214Z,7.30
2019-06-26T09:54:19.889Z,6.78
2019-06-26T09:56:52.177Z,6.67
2019-06-26T09:59:28.200Z,7.60
2019-06-26T10:02:00.915Z,6.20
2019-06-26T10:04:33.073Z,7.12
2019-06-26T10:07:05.206Z,7.37
2019-06-26T10:09:37.924Z,7.15
2019-06-26T10:12:10.664Z,7.53
2019-06-26T10:14:47.714Z,7.42
2019-06-26T10:17:16.154Z,6.58
2019-06-26T10:19:48.276Z,6.50
2019-06-26T10:22:20.162Z,6.10
2019-06-26T10:24:52.226Z,6.25
2019-06-26T10:27:24.919Z,6.28
2019-06-26T10:29:57.046Z,6.80
2019-06-26T10:32:30.816Z,6.03
2019-06-26T10:35:03.157Z,6.30
2019-06-26T10:37:35.494Z,5.28
2019-06-26T10:40:08.105Z,5.62
2019-06-26T10:42:40.220Z,5.62
2019-06-26T10:45:12.682Z,5.70
2019-06-26T10:47:45.345Z,5.30
2019-06-26T10:50:17.942Z,5.35
2019-06-26T10:52:50.406Z,5.78
2019-06-26T10:55:22.640Z,5.65
2019-06-26T10:57:54.683Z,6.03
2019-06-26T11:00:26.741Z,5.62
2019-06-26T11:02:59.166Z,5.85
2019-06-26T11:05:32.061Z,5.75
2019-06-26T11:08:04.167Z,4.50
2019-06-26T11:10:36.357Z,5.08
2019-06-26T11:13:08.988Z,4.58
2019-06-26T11:15:41.341Z,4.87
2019-06-26T11:18:13.742Z,5.00
2019-06-26T11:20:45.841Z,5.78
2019-06-26T11:23:18.276Z,5.05
2019-06-26T11:25:50.656Z,5.40
2019-06-26T11:28:23.444Z,4.75
2019-06-26T11:30:55.646Z,5.35
2019-06-26T11:33:28.099Z,5.03
2019-06-26T11:36:00.446Z,5.83
2019-06-26T11:38:32.873Z,5.95
2019-06-26T11:41:06.583Z,5.92
2019-06-26T11:43:38.786Z,5.83
2019-06-26T11:46:11.255Z,5.55
2019-06-26T11:48:43.459Z,6.15
2019-06-26T11:51:15.848Z,5.30
2019-06-26T11:53:47.943Z,5.50
2019-06-26T11:56:20.390Z,5.37
2019-06-26T11:58:52.832Z,5.37
2019-06-26T12:01:25.137Z,6.12
2019-06-26T12:03:57.242Z,5.62
2019-06-26T12:06:29.363Z,6.20
2019-06-26T12:09:01.734Z,5.70
2019-06-26T12:11:34.747Z,5.83
2019-06-26T12:14:07.220Z,5.78
2019-06-26T12:16:39.562Z,5.87
2019-06-26T12:19:11.933Z,5.80
2019-06-26T12:21:44.329Z,5.30
2019-06-26T12:24:16.668Z,5.50
2019-06-26T12:26:49.365Z,6.50
2019-06-26T12:29:21.518Z,5.42
2019-06-26T12:31:53.344Z,5.72
2019-06-26T12:34:25.991Z,5.33
2019-06-26T12:36:57.804Z,5.78
2019-06-26T12:39:30.707Z,5.58
2019-06-26T12:42:02.916Z,5.60
2019-06-26T12:44:35.261Z,5.40
2019-06-26T12:47:07.984Z,4.95
2019-06-26T12:49:58.313Z,5.22
2019-06-26T12:52:37.399Z,5.20
2019-06-26T12:55:10.068Z,4.20
2019-06-26T12:57:42.769Z,3.70
2019-06-26T13:00:15.284Z,4.33
2019-06-26T13:02:47.112Z,4.40
2019-06-26T13:05:19.299Z,4.47
2019-06-26T13:07:51.791Z,4.37
2019-06-26T13:10:24.614Z,3.87
2019-06-26T13:12:57.263Z,4.08
2019-06-26T13:15:30.344Z,4.33
2019-06-26T13:18:02.415Z,4.70
2019-06-26T13:20:51.174Z,4.65
2019-06-26T13:23:09.530Z,4.42
2019-06-26T13:25:41.970Z,5.03
2019-06-26T13:28:14.064Z,4.40
2019-06-26T13:30:46.491Z,4.78
2019-06-26T13:33:18.995Z,4.90
2019-06-26T13:35:51.179Z,4.53
2019-06-26T13:38:26.993Z,4.60
2019-06-26T13:40:57.780Z,4.73
2019-06-26T13:43:30.166Z,4.70
2019-06-26T13:46:03.057Z,5.08
2019-06-26T13:48:35.520Z,5.45
2019-06-26T13:51:10.111Z,4.87
2019-06-26T13:53:42.019Z,5.12
2019-06-26T13:56:14.593Z,5.28
2019-06-26T13:58:47.765Z,5.17
2019-06-26T14:01:22.893Z,4.80
2019-06-26T14:03:54.426Z,4.85
2019-06-26T14:06:27.082Z,4.78
2019-06-26T14:08:59.309Z,5.42
2019-06-26T14:11:31.661Z,5.10
2019-06-26T14:14:04.595Z,4.80
2019-06-26T14:16:36.624Z,5.33
2019-06-26T14:19:09.567Z,5.72
2019-06-26T14:21:41.951Z,5.00
2019-06-26T14:24:14.546Z,5.30
2019-06-26T14:26:46.470Z,5.22
2019-06-26T14:29:21.366Z,5.65
2019-06-26T14:31:52.634Z,5.05
2019-06-26T14:34:27.780Z,5.12
2019-06-26T14:36:59.055Z,5.40
2019-06-26T14:39:31.770Z,4.80
2019-06-26T14:42:03.652Z,5.65
2019-06-26T14:44:36.422Z,4.95
2019-06-26T14:47:08.507Z,4.87
2019-06-26T14:49:40.618Z,5.12
2019-06-26T14:52:12.789Z,4.37
2019-06-26T14:54:45.488Z,4.28
2019-06-26T14:57:17.838Z,4.12
2019-06-26T14:59:50.021Z,4.33
2019-06-26T15:02:22.101Z,4.33
2019-06-26T15:04:54.181Z,4.25
2019-06-26T15:07:26.295Z,4.22
2019-06-26T15:09:58.925Z,4.10
2019-06-26T15:12:31.148Z,4.00
2019-06-26T15:15:03.581Z,3.67
2019-06-26T15:17:36.312Z,4.22
2019-06-26T15:20:08.990Z,3.80
2019-06-26T15:22:41.122Z,4.40
2019-06-26T15:25:14.863Z,4.22
2019-06-26T15:27:46.962Z,3.72
2019-06-26T15:30:20.540Z,4.08
2019-06-26T15:32:52.640Z,3.87
2019-06-26T15:35:25.062Z,4.37
2019-06-26T15:37:57.455Z,3.70
2019-06-26T15:40:29.568Z,4.12
2019-06-26T15:43:01.986Z,4.10
2019-06-26T15:45:34.665Z,4.12
2019-06-26T15:48:06.612Z,3.90
2019-06-26T15:50:39.098Z,5.17
2019-06-26T15:53:11.838Z,4.72
2019-06-26T15:55:44.797Z,4.42
2019-06-26T15:58:16.869Z,4.08
2019-06-26T16:00:48.990Z,4.87
2019-06-26T16:03:21.368Z,4.37
2019-06-26T16:05:53.816Z,4.35
2019-06-26T16:08:26.146Z,4.10
2019-06-26T16:10:57.980Z,4.35
2019-06-26T16:13:31.351Z,4.20
2019-06-26T16:16:03.283Z,4.65
2019-06-26T16:18:45.887Z,4.75
2019-06-26T16:21:17.827Z,4.30
2019-06-26T16:23:50.920Z,4.25
2019-06-26T16:26:23.043Z,4.60
2019-06-26T16:28:56.008Z,4.25
2019-06-26T16:31:28.389Z,4.55
2019-06-26T16:34:00.758Z,4.33
2019-06-26T16:36:33.164Z,4.90
2019-06-26T16:39:07.342Z,4.62
2019-06-26T16:41:39.186Z,4.35
2019-06-26T16:44:11.296Z,4.70
2019-06-26T16:46:43.908Z,4.30
2019-06-26T16:49:16.132Z,4.12
2019-06-26T16:51:48.582Z,3.92
2019-06-26T16:54:20.767Z,4.33
2019-06-26T16:56:53.178Z,4.60
2019-06-26T16:59:25.968Z,4.25
2019-06-26T17:01:58.361Z,4.75
2019-06-26T17:04:30.620Z,4.00
2019-06-26T17:07:03.518Z,4.30
2019-06-26T17:09:35.606Z,4.58
2019-06-26T17:12:08.068Z,4.08
2019-06-26T17:14:40.652Z,4.65
2019-06-26T17:17:12.811Z,4.10
2019-06-26T17:19:45.436Z,4.40
2019-06-26T17:22:22.113Z,4.78
2019-06-26T17:24:54.941Z,4.47
2019-06-26T17:27:31.139Z,4.90
2019-06-26T17:30:03.768Z,4.65
2019-06-26T17:32:36.455Z,4.53
2019-06-26T17:35:09.256Z,4.65
2019-06-26T17:37:41.337Z,4.90
2019-06-26T17:40:15.234Z,4.62
2019-06-26T17:42:47.367Z,4.85
2019-06-26T17:45:20.128Z,5.22
2019-06-26T17:47:52.157Z,4.50
2019-06-26T17:50:25.096Z,4.67
2019-06-26T17:52:57.433Z,4.78
2019-06-26T17:55:29.807Z,5.12
2019-06-26T17:58:02.314Z,4.53
2019-06-26T18:00:36.538Z,4.80
2019-06-26T18:03:09.547Z,5.03
2019-06-26T18:05:42.363Z,4.87
2019-06-26T18:08:14.727Z,4.80
2019-06-26T18:10:47.076Z,5.15
2019-06-26T18:13:19.791Z,4.83
2019-06-26T18:15:52.230Z,5.10
2019-06-26T18:18:24.597Z,5.10
2019-06-26T18:20:56.995Z,5.28
2019-06-26T18:23:37.722Z,5.60
2019-06-26T18:26:12.992Z,4.72
2019-06-26T18:28:37.355Z,4.40
2019-06-26T18:31:09.462Z,5.53
2019-06-26T18:33:44.383Z,5.37
2019-06-26T18:36:17.047Z,5.00
2019-06-26T18:38:49.803Z,5.62
2019-06-26T18:41:22.286Z,5.28
2019-06-26T18:43:54.047Z,4.97
2019-06-26T18:46:26.700Z,5.22
2019-06-26T18:48:58.779Z,5.30
2019-06-26T18:51:31.360Z,5.20
2019-06-26T18:54:03.888Z,5.33
2019-06-26T18:56:36.066Z,5.50
2019-06-26T18:59:08.404Z,6.12
2019-06-26T19:01:41.100Z,5.67
2019-06-26T19:04:14.458Z,5.80
2019-06-26T19:06:47.213Z,5.37
2019-06-26T19:09:19.762Z,5.80
2019-06-26T19:11:52.290Z,5.77
2019-06-26T19:14:24.191Z,5.97
2019-06-26T19:16:56.342Z,8.38
2019-06-26T19:19:29.585Z,7.70
2019-06-26T19:22:02.299Z,7.22
2019-06-26T19:24:34.430Z,7.00
2019-06-26T19:27:07.809Z,7.03
2019-06-26T19:29:40.720Z,6.45
2019-06-26T19:32:13.784Z,6.55
2019-06-26T19:34:47.494Z,6.45
2019-06-26T19:37:20.024Z,7.08
2019-06-26T19:39:52.587Z,7.33
2019-06-26T19:42:24.861Z,7.45
2019-06-26T19:44:57.010Z,7.42
2019-06-26T19:47:28.897Z,7.58
2019-06-26T19:50:02.117Z,6.53
2019-06-26T19:52:35.840Z,7.03
2019-06-26T19:55:09.048Z,6.77
2019-06-26T19:57:42.093Z,7.23
2019-06-26T20:00:17.832Z,7.13
2019-06-26T20:02:50.627Z,7.90
2019-06-26T20:05:23.758Z,6.87
2019-06-26T20:07:56.619Z,7.00
2019-06-26T20:10:29.446Z,7.33
2019-06-26T20:13:02.534Z,6.43
2019-06-26T20:15:35.098Z,7.00
2019-06-26T20:18:07.513Z,6.70
2019-06-26T20:20:40.101Z,8.63
2019-06-26T20:23:13.771Z,7.63
2019-06-26T20:25:46.355Z,7.50
2019-06-26T20:28:23.783Z,6.77
2019-06-26T20:30:56.817Z,7.50
2019-06-26T20:33:29.631Z,7.07
2019-06-26T20:36:02.136Z,7.10
2019-06-26T20:38:34.638Z,7.53
2019-06-26T20:41:07.551Z,7.40
2019-06-26T20:43:40.792Z,7.23
2019-06-26T20:46:15.560Z,6.83
2019-06-26T20:48:48.899Z,7.67
2019-06-26T20:51:21.871Z,7.23
2019-06-26T20:53:54.963Z,7.70
2019-06-26T20:56:28.104Z,7.57
2019-06-26T20:59:00.521Z,7.53
2019-06-26T21:01:33.021Z,7.83
2019-06-26T21:04:06.064Z,8.63
2019-06-26T21:06:38.566Z,8.67
2019-06-26T21:09:12.312Z,8.00
2019-06-26T21:11:45.636Z,7.57
2019-06-26T21:14:18.274Z,8.00
2019-06-26T21:16:50.553Z,8.43
2019-06-26T21:19:23.055Z,7.83
2019-06-26T21:21:56.101Z,7.95
2019-06-26T21:24:28.255Z,7.45
2019-06-26T21:29:32.163Z,7.40
2019-06-26T21:32:05.285Z,8.27
2019-06-26T21:34:38.288Z,8.40
2019-06-26T21:37:10.642Z,8.10
2019-06-26T21:39:42.502Z,7.80
2019-06-26T21:42:15.233Z,7.92
2019-06-26T21:44:47.539Z,7.85
2019-06-26T21:47:21.978Z,7.53
2019-06-26T21:49:54.439Z,7.87
2019-06-26T21:54:57.525Z,8.60
2019-06-26T21:57:29.930Z,7.67
2019-06-26T22:02:33.734Z,7.20
2019-06-26T22:05:06.989Z,8.13
2019-06-26T22:07:39.922Z,8.43
2019-06-26T22:10:12.180Z,8.38
2019-06-26T22:12:44.679Z,8.30
2019-06-26T22:15:17.555Z,8.85
2019-06-26T22:17:50.035Z,8.60
2019-06-26T22:20:22.625Z,7.37
2019-06-26T22:22:55.229Z,7.30
2019-06-26T22:25:28.098Z,7.87
2019-06-26T22:28:00.106Z,7.67
2019-06-26T22:30:33.039Z,8.75
2019-06-26T22:33:05.290Z,8.80
2019-06-26T22:38:08.561Z,9.08
2019-06-26T22:43:13.597Z,8.68
2019-06-26T22:45:46.171Z,8.20
2019-06-26T22:48:18.433Z,8.98
2019-06-26T22:53:23.719Z,8.23
2019-06-26T22:56:07.010Z,7.60
2019-06-26T22:58:30.362Z,8.95
2019-06-26T23:01:02.836Z,8.73
2019-06-26T23:03:36.052Z,8.50
2019-06-26T23:06:08.765Z,9.53
2019-06-26T23:08:41.434Z,9.20
2019-06-26T23:11:13.954Z,8.73
2019-06-26T23:16:16.959Z,9.45
2019-06-26T23:18:49.473Z,9.10
2019-06-26T23:21:22.150Z,10.58
2019-06-26T23:23:54.337Z,9.20
2019-06-26T23:26:27.623Z,9.37
2019-06-26T23:29:00.431Z,9.53
2019-06-26T23:31:33.344Z,10.23
2019-06-26T23:34:06.535Z,9.27
2019-06-26T23:36:38.943Z,9.20
2019-06-26T23:39:11.595Z,8.93
2019-06-26T23:41:43.776Z,9.68
2019-06-26T23:44:16.237Z,9.78
2019-06-26T23:46:48.968Z,11.25
2019-06-26T23:49:21.492Z,10.03
2019-06-26T23:51:53.985Z,9.57
2019-06-26T23:54:26.121Z,10.58
2019-06-26T23:56:58.263Z,10.38
2019-06-26T23:59:31.039Z,9.60
